aviador You're here:

KBKX Decoded Metar

BROOKINGS in SD, USA
Report Time2017-08-22 02:56:00
UTC Time2017-08-22 03:27:38
Flight Rules unknown UNKNOWN
WindCalm
VisibilityN/A
Phenomena:N/A
Clouds:N/A
Expected CloudBase > 800 ft AGL from Temp-Dew spread
CeilingNone
Temp18°C (ISA +6)
Dew Point16°C (88% RH)
QNH1016 hPa
Density Alt2,530 ft
Elevation1,647 ft
Report Wrong Elevation
Raw Report
METAR KBKX 220256Z AUTO 00000KT CLR 18/16 A2999 RMK AO2 SLP164 T01780161
53003 RVRNO $=

Extra information for KBKX:More info

Metar Taf Metar & Taf Last 4 Metars F.Rules Stats Wind Profile Meteogram Temp Stats Airport Information Weather charts Add Link Nearby VenuesMetar ALERT Operation Metar Decoded Social comments

AIRNAV info for KBKX